Time;durP1;ratioP1;P1;durP2;ratioP2;P2;SDS_P1;SDS_P2;PMS_P1;PMS_P2;Temp;Humidity;BMP_temperature;BMP_pressure;BME280_temperature;BME280_humidity;BME280_pressure;Samples;Min_cycle;Max_cycle;Signal;HPM_P1;HPM_P2
2022/05/08 00:01:35;;;;;;;12.80;8.85;;;;;;;11.49;76.20;102596.91;5026424;28;20087;-64
2022/05/08 00:04:03;;;;;;;14.20;10.15;;;;;;;11.37;76.28;102602.81;5025726;28;20061;-64
2022/05/08 00:06:29;;;;;;;13.95;9.27;;;;;;;11.33;76.35;102598.72;5040569;28;20041;-64
2022/05/08 00:08:54;;;;;;;12.73;9.65;;;;;;;11.38;76.11;102594.09;5026309;28;20386;-64
2022/05/08 00:11:19;;;;;;;13.90;9.55;;;;;;;11.32;75.92;102605.66;5025821;28;20040;-65
2022/05/08 00:13:47;;;;;;;11.68;9.35;;;;;;;11.28;75.71;102598.13;5029900;28;20021;-64
2022/05/08 00:16:12;;;;;;;12.98;9.55;;;;;;;11.29;76.00;102602.41;5029353;28;20033;-64
2022/05/08 00:18:37;;;;;;;12.65;9.65;;;;;;;11.22;76.19;102604.50;5028273;28;20030;-64
2022/05/08 00:21:05;;;;;;;12.65;9.90;;;;;;;11.16;75.71;102600.50;5029244;28;20029;-67
2022/05/08 00:23:30;;;;;;;14.38;10.55;;;;;;;11.19;76.28;102603.84;5029496;28;20075;-65
2022/05/08 00:25:56;;;;;;;13.80;10.05;;;;;;;11.13;77.10;102605.88;5029675;28;20033;-65
2022/05/08 00:28:21;;;;;;;14.15;10.60;;;;;;;11.10;76.68;102605.19;5029121;28;20139;-64
2022/05/08 00:30:46;;;;;;;12.45;10.63;;;;;;;11.00;76.88;102593.63;5029230;28;20457;-65
2022/05/08 00:33:12;;;;;;;15.00;10.38;;;;;;;10.97;76.27;102599.84;5044647;28;20052;-64
2022/05/08 00:35:37;;;;;;;14.27;10.85;;;;;;;10.94;76.61;102589.63;5029064;28;20033;-65
2022/05/08 00:38:03;;;;;;;12.50;11.05;;;;;;;10.83;77.27;102591.97;5029472;28;20462;-65
2022/05/08 00:40:32;;;;;;;13.40;11.07;;;;;;;10.89;77.40;102602.00;5029299;28;20385;-65
2022/05/08 00:43:24;;;;;;;13.75;11.23;;;;;;;10.92;76.66;102607.03;5027962;28;20385;-65
2022/05/08 00:45:49;;;;;;;14.02;11.07;;;;;;;10.79;76.71;102595.66;5029334;28;20613;-64
2022/05/08 00:48:15;;;;;;;16.65;11.80;;;;;;;10.77;77.46;102607.88;5029058;28;20075;-66
2022/05/08 00:50:40;;;;;;;14.40;11.63;;;;;;;10.81;77.23;102604.19;5028623;28;20033;-67
2022/05/08 00:53:06;;;;;;;16.00;12.00;;;;;;;10.75;76.99;102604.53;5029402;28;20042;-64
2022/05/08 00:55:31;;;;;;;16.85;12.27;;;;;;;10.72;77.25;102609.88;5044645;28;20052;-64
2022/05/08 00:57:57;;;;;;;15.10;11.82;;;;;;;10.64;77.77;102602.50;5027231;28;20033;-65
2022/05/08 01:00:23;;;;;;;14.40;9.80;;;;;;;10.70;77.08;102604.75;5028564;28;20037;-65
2022/05/08 01:02:48;;;;;;;16.00;11.73;;;;;;;10.61;77.66;102606.09;5028907;28;20052;-65
2022/05/08 01:05:13;;;;;;;15.55;10.30;;;;;;;10.69;77.34;102607.44;5028826;28;20033;-65
2022/05/08 01:07:39;;;;;;;15.43;12.20;;;;;;;10.55;77.50;102598.66;5028023;28;20045;-64
2022/05/08 01:10:05;;;;;;;15.60;12.13;;;;;;;10.63;77.72;102609.44;5028793;28;20466;-65
2022/05/08 01:12:32;;;;;;;14.95;12.07;;;;;;;10.53;78.32;102605.66;5027784;28;20049;-64
2022/05/08 01:15:16;;;;;;;17.77;12.23;;;;;;;10.63;78.05;102606.03;5028688;28;20036;-64
2022/05/08 01:17:41;;;;;;;15.30;11.82;;;;;;;10.50;78.03;102618.81;5026596;28;20037;-64
2022/05/08 01:20:07;;;;;;;15.73;11.98;;;;;;;10.49;78.29;102614.50;5018816;28;20034;-64
2022/05/08 01:22:33;;;;;;;15.68;12.10;;;;;;;10.54;78.31;102612.53;5026403;28;20044;-65
2022/05/08 01:25:02;;;;;;;15.73;12.40;;;;;;;10.53;77.92;102621.22;5028038;28;20025;-65
2022/05/08 01:27:27;;;;;;;14.02;11.88;;;;;;;10.49;77.98;102609.31;5027895;28;20033;-64
2022/05/08 01:29:53;;;;;;;15.27;11.52;;;;;;;10.58;77.24;102618.41;5021669;28;20030;-67
2022/05/08 01:32:19;;;;;;;17.88;11.27;;;;;;;10.50;76.56;102626.59;5027205;28;20033;-64
2022/05/08 01:34:44;;;;;;;18.83;10.93;;;;;;;10.51;75.77;102623.06;5027519;28;20029;-66
2022/05/08 01:37:10;;;;;;;15.80;11.45;;;;;;;10.48;75.67;102620.63;5027980;28;20118;-64
2022/05/08 01:39:35;;;;;;;17.17;10.90;;;;;;;10.38;76.03;102619.47;5027991;28;20059;-64
2022/05/08 01:42:04;;;;;;;17.65;10.60;;;;;;;10.33;75.40;102619.69;5027888;28;20075;-64
2022/05/08 01:44:30;;;;;;;19.23;10.55;;;;;;;10.35;75.32;102625.63;5027619;28;20060;-64
2022/05/08 01:48:21;;;;;;;15.30;9.57;;;;;;;10.21;74.97;102619.47;5026128;28;20041;-67
2022/05/08 01:49:41;;;;;;;16.13;9.23;;;;;;;10.23;73.79;102635.75;5027867;28;20068;-65
2022/05/08 01:52:07;;;;;;;15.88;8.88;;;;;;;10.19;74.69;102629.06;5034234;28;20124;-64
2022/05/08 01:54:32;;;;;;;18.10;9.35;;;;;;;10.11;74.04;102621.69;5042771;28;20133;-68
2022/05/08 01:56:58;;;;;;;19.20;9.07;;;;;;;10.11;73.82;102619.91;5027424;28;20533;-64
2022/05/08 01:59:24;;;;;;;18.23;8.57;;;;;;;10.13;73.78;102626.78;5027584;28;20461;-65
2022/05/08 02:01:49;;;;;;;19.52;8.27;;;;;;;9.99;73.76;102630.91;5027064;28;20064;-65
2022/05/08 02:04:15;;;;;;;18.13;8.07;;;;;;;9.98;73.33;102634.41;5028044;28;20119;-64
2022/05/08 02:06:46;;;;;;;18.60;8.57;;;;;;;9.94;73.18;102627.72;5027375;28;20057;-66
2022/05/08 02:09:11;;;;;;;18.25;8.00;;;;;;;9.94;73.22;102635.47;5022159;28;20022;-64
2022/05/08 02:11:37;;;;;;;16.83;7.80;;;;;;;9.97;73.63;102637.91;5007852;28;20057;-65
2022/05/08 02:14:02;;;;;;;16.50;7.35;;;;;;;9.92;73.42;102650.28;5007708;28;20109;-64
2022/05/08 02:16:28;;;;;;;21.33;8.02;;;;;;;9.95;73.23;102650.13;5007926;28;20494;-64
2022/05/08 02:18:54;;;;;;;18.98;7.78;;;;;;;9.86;72.46;102640.19;5007989;28;20030;-64
2022/05/08 02:21:19;;;;;;;16.20;7.43;;;;;;;9.96;72.43;102641.41;5030661;28;20114;-65
2022/05/08 02:23:45;;;;;;;18.10;7.28;;;;;;;9.86;73.11;102635.00;5027685;28;20034;-64
2022/05/08 02:26:10;;;;;;;19.80;7.88;;;;;;;9.86;73.62;102647.97;5026917;28;20422;-64
2022/05/08 02:28:35;;;;;;;19.90;7.70;;;;;;;9.82;73.67;102641.28;5042330;28;20558;-64
2022/05/08 02:31:01;;;;;;;20.92;7.55;;;;;;;9.89;73.12;102645.25;5027241;28;20064;-64
2022/05/08 02:33:26;;;;;;;19.70;7.60;;;;;;;9.81;73.27;102643.03;5027063;28;20750;-64
2022/05/08 02:35:52;;;;;;;16.20;5.78;;;;;;;9.84;72.91;102648.06;5026261;28;20026;-65
2022/05/08 02:38:17;;;;;;;20.52;6.05;;;;;;;9.82;73.13;102649.88;5026863;28;20067;-64
2022/05/08 02:40:43;;;;;;;17.88;7.13;;;;;;;9.71;72.85;102636.63;5025566;28;20067;-65
2022/05/08 02:43:08;;;;;;;18.08;7.03;;;;;;;9.67;72.92;102639.44;5025248;28;20072;-65
2022/05/08 02:45:33;;;;;;;17.92;7.25;;;;;;;9.67;73.27;102639.44;5027050;28;20025;-64
2022/05/08 02:47:59;;;;;;;20.90;7.63;;;;;;;9.57;73.10;102633.84;5027030;28;20018;-66
2022/05/08 02:50:25;;;;;;;19.92;7.10;;;;;;;9.63;73.17;102648.25;5026797;28;20386;-64
2022/05/08 02:52:51;;;;;;;18.23;7.30;;;;;;;9.61;73.93;102647.50;5026164;28;20057;-67
2022/05/08 03:00:46;;;;;;;16.33;6.93;;;;;;;9.61;73.90;102650.09;5026518;28;20075;-64
2022/05/08 03:03:12;;;;;;;18.80;5.80;;;;;;;9.66;73.73;102645.53;5025302;28;20022;-65
2022/05/08 03:05:41;;;;;;;18.67;6.80;;;;;;;9.50;73.98;102643.66;5041841;28;20029;-65
2022/05/08 03:08:07;;;;;;;21.75;7.00;;;;;;;9.54;73.13;102655.56;5026680;28;20030;-64
2022/05/08 03:11:25;;;;;;;22.65;7.10;;;;;;;9.46;73.50;102647.34;5025343;28;20123;-64
2022/05/08 03:13:18;;;;;;;18.05;6.70;;;;;;;9.58;73.28;102654.53;5025781;28;20050;-65
2022/05/08 03:15:44;;;;;;;19.15;6.55;;;;;;;9.55;73.01;102657.25;5026132;28;20040;-65
2022/05/08 03:18:09;;;;;;;20.73;6.68;;;;;;;9.48;72.43;102645.50;5041482;28;20026;-64
2022/05/08 03:20:35;;;;;;;18.35;6.00;;;;;;;9.50;72.98;102648.84;5026527;28;20111;-64
2022/05/08 03:23:00;;;;;;;18.90;6.65;;;;;;;9.44;73.65;102649.13;5026626;28;20448;-65
2022/05/08 03:25:25;;;;;;;19.17;7.00;;;;;;;9.41;73.66;102654.47;5026519;28;20367;-65
2022/05/08 03:27:51;;;;;;;17.73;4.93;;;;;;;9.49;73.42;102657.53;5026020;28;20470;-65
2022/05/08 03:30:16;;;;;;;22.08;6.38;;;;;;;9.45;72.91;102656.00;5025964;28;20474;-64
2022/05/08 03:32:42;;;;;;;21.63;6.70;;;;;;;9.28;73.18;102649.03;5025072;28;20032;-64
2022/05/08 03:35:07;;;;;;;21.15;6.18;;;;;;;9.42;72.50;102650.13;5025656;28;20036;-66
2022/05/08 03:37:33;;;;;;;21.23;5.18;;;;;;;9.34;72.72;102642.72;5026430;28;20266;-64
2022/05/08 03:39:59;;;;;;;19.33;6.20;;;;;;;9.25;72.72;102663.88;5041851;28;20064;-66
2022/05/08 03:42:25;;;;;;;22.13;6.70;;;;;;;9.19;73.10;102648.63;5026169;28;20116;-64
2022/05/08 03:44:53;;;;;;;16.60;4.32;;;;;;;9.28;72.77;102653.38;5026312;28;20076;-67
2022/05/08 03:47:19;;;;;;;23.88;6.63;;;;;;;9.15;72.75;102652.25;5029539;28;20539;-64
2022/05/08 03:49:45;;;;;;;19.30;5.88;;;;;;;9.14;73.11;102666.97;5029987;28;20029;-64
2022/05/08 03:52:10;;;;;;;23.45;6.97;;;;;;;9.10;73.08;102665.41;5030279;28;20037;-64
2022/05/08 03:54:35;;;;;;;21.52;6.55;;;;;;;9.16;72.84;102659.94;5030311;28;20025;-64
2022/05/08 03:57:01;;;;;;;17.05;5.68;;;;;;;9.14;73.19;102671.31;5029479;28;20120;-65
2022/05/08 03:59:26;;;;;;;16.05;4.50;;;;;;;9.17;73.30;102663.38;5029487;28;20029;-65
2022/05/08 04:01:54;;;;;;;23.00;6.93;;;;;;;9.17;73.10;102676.31;5030135;28;20397;-64
2022/05/08 04:04:20;;;;;;;21.27;6.57;;;;;;;9.18;73.00;102678.03;5029603;28;20034;-65
2022/05/08 04:06:45;;;;;;;21.65;6.43;;;;;;;9.18;73.04;102680.63;5030222;28;20186;-65
2022/05/08 04:09:10;;;;;;;22.38;5.97;;;;;;;9.12;73.04;102678.28;5029733;28;20485;-64
2022/05/08 04:11:36;;;;;;;22.85;6.47;;;;;;;9.10;73.14;102674.94;5029669;28;20047;-64
2022/05/08 04:14:01;;;;;;;19.98;5.65;;;;;;;9.04;73.33;102682.06;5029828;28;20124;-66
2022/05/08 04:16:27;;;;;;;20.02;4.82;;;;;;;9.17;73.33;102676.31;5030231;28;20033;-64
2022/05/08 04:18:52;;;;;;;20.67;6.03;;;;;;;9.11;73.65;102686.97;5045016;28;20115;-64
2022/05/08 04:21:18;;;;;;;22.15;5.97;;;;;;;9.14;73.34;102681.66;5029424;28;20022;-64
2022/05/08 04:26:28;;;;;;;21.17;6.10;;;;;;;8.96;73.71;102680.75;5026486;28;20614;-64
2022/05/08 04:28:54;;;;;;;22.05;6.28;;;;;;;9.00;73.57;102685.72;5029376;28;20033;-65
2022/05/08 04:31:19;;;;;;;21.15;6.45;;;;;;;8.89;73.59;102687.94;5029297;28;20022;-64
2022/05/08 04:33:44;;;;;;;20.15;6.18;;;;;;;8.92;74.14;102684.38;5029195;28;20117;-65
2022/05/08 04:36:10;;;;;;;18.38;5.47;;;;;;;9.01;73.37;102682.22;5028959;28;20104;-65
2022/05/08 04:38:35;;;;;;;23.35;6.50;;;;;;;8.96;73.98;102691.94;5029413;28;20488;-65
2022/05/08 04:41:00;;;;;;;25.02;6.07;;;;;;;8.88;73.71;102675.91;5029061;28;20036;-64
2022/05/08 04:43:26;;;;;;;22.50;6.05;;;;;;;8.86;73.91;102676.88;5029333;28;20350;-66
2022/05/08 04:45:51;;;;;;;23.55;6.53;;;;;;;8.96;73.67;102679.00;5028257;28;20026;-65
2022/05/08 04:48:16;;;;;;;19.70;5.95;;;;;;;8.86;73.68;102682.91;5029753;28;20108;-64
2022/05/08 04:50:42;;;;;;;22.65;6.75;;;;;;;9.07;73.74;102685.44;5028952;28;20108;-64
2022/05/08 04:53:07;;;;;;;19.88;6.13;;;;;;;8.98;74.10;102687.53;5028853;28;20508;-65
2022/05/08 04:55:33;;;;;;;18.50;5.78;;;;;;;8.95;73.87;102690.25;5029067;28;20381;-65
2022/05/08 04:57:58;;;;;;;21.42;6.35;;;;;;;8.88;74.02;102688.84;5026763;28;20453;-65
2022/05/08 05:00:25;;;;;;;21.38;6.10;;;;;;;8.84;73.74;102697.66;5028752;28;20045;-65
2022/05/08 05:02:51;;;;;;;20.95;5.97;;;;;;;8.84;73.60;102695.06;5029001;28;20068;-65
2022/05/08 05:05:16;;;;;;;20.75;5.75;;;;;;;8.91;74.17;102706.81;5028643;28;20038;-65
2022/05/08 05:07:42;;;;;;;21.85;6.32;;;;;;;8.90;74.63;102699.13;5024366;28;20515;-66
2022/05/08 05:10:11;;;;;;;21.50;5.80;;;;;;;8.89;73.64;102703.47;5028613;28;20109;-67
2022/05/08 05:12:38;;;;;;;25.00;6.45;;;;;;;8.87;73.67;102710.44;5027391;28;20053;-65
2022/05/08 05:15:05;;;;;;;21.25;6.75;;;;;;;8.82;74.17;102714.97;5028461;28;20115;-64
2022/05/08 05:17:30;;;;;;;25.27;6.68;;;;;;;8.78;73.66;102700.53;5028255;28;20482;-65
2022/05/08 05:19:55;;;;;;;18.48;6.43;;;;;;;8.87;73.61;102723.38;5027253;28;20060;-65
2022/05/08 05:22:24;;;;;;;20.58;5.78;;;;;;;8.89;74.17;102724.19;5028460;28;20091;-66
2022/05/08 05:24:50;;;;;;;;;;;;;;;9.03;73.33;102732.16;5027543;28;20022;-64
2022/05/08 05:27:16;;;;;;;22.02;6.38;;;;;;;8.77;73.42;102722.97;5028429;28;19952;-65
2022/05/08 05:29:41;;;;;;;20.70;5.70;;;;;;;8.91;73.87;102732.69;5028996;28;20053;-64
2022/05/08 05:32:07;;;;;;;20.83;6.03;;;;;;;8.91;73.67;102726.69;5028230;28;20037;-64
2022/05/08 05:34:32;;;;;;;24.27;6.00;;;;;;;8.87;73.18;102731.16;5026810;28;20425;-65
2022/05/08 05:36:58;;;;;;;19.63;5.75;;;;;;;8.85;73.27;102738.16;5028409;28;20421;-64
2022/05/08 05:39:26;;;;;;;20.35;5.75;;;;;;;8.88;73.67;102745.75;5028136;28;20762;-65
2022/05/08 05:41:51;;;;;;;22.42;6.20;;;;;;;8.90;73.42;102741.38;5027193;28;20112;-66
2022/05/08 05:44:17;;;;;;;20.17;6.10;;;;;;;8.93;73.38;102738.63;5028089;28;20117;-64
2022/05/08 05:49:27;;;;;;;19.42;5.82;;;;;;;9.03;72.60;102750.28;5008530;28;20099;-64
2022/05/08 05:51:53;;;;;;;18.55;5.72;;;;;;;9.02;72.63;102752.94;5016386;28;20029;-68
2022/05/08 05:54:21;;;;;;;22.40;6.15;;;;;;;9.03;73.25;102747.69;5027610;28;20515;-65
2022/05/08 05:56:47;;;;;;;18.10;6.32;;;;;;;9.12;73.53;102763.69;5018305;28;20409;-65
2022/05/08 05:59:13;;;;;;;17.60;4.75;;;;;;;9.16;72.30;102752.31;5012044;28;20036;-64
2022/05/08 06:01:38;;;;;;;19.17;5.30;;;;;;;9.03;71.81;102757.19;5021230;28;20037;-65
2022/05/08 06:04:03;;;;;;;18.90;4.75;;;;;;;9.05;72.73;102750.19;5018785;28;20025;-67
2022/05/08 06:06:29;;;;;;;17.92;6.00;;;;;;;9.07;71.87;102758.75;5015715;28;20128;-64
2022/05/08 06:08:54;;;;;;;20.63;6.53;;;;;;;9.18;72.05;102760.88;5014632;28;20029;-64
2022/05/08 06:11:19;;;;;;;17.83;5.78;;;;;;;9.25;71.46;102772.63;5011013;28;20108;-65
2022/05/08 06:13:45;;;;;;;18.05;5.65;;;;;;;9.26;71.20;102763.94;5010148;28;20124;-65
2022/05/08 06:16:10;;;;;;;19.35;6.00;;;;;;;9.32;71.25;102768.84;5023453;28;20029;-64
2022/05/08 06:18:35;;;;;;;21.15;6.30;;;;;;;9.25;71.29;102768.28;5019000;28;20033;-65
2022/05/08 06:21:01;;;;;;;18.60;5.53;;;;;;;9.33;70.94;102770.50;5013907;28;20058;-64
2022/05/08 06:23:26;;;;;;;21.30;6.20;;;;;;;9.34;70.27;102774.78;5014140;28;20112;-64
2022/05/08 06:25:52;;;;;;;21.80;6.30;;;;;;;9.35;70.82;102778.22;5025588;28;20033;-65
2022/05/08 06:28:19;;;;;;;19.98;6.00;;;;;;;9.40;70.14;102781.44;5027115;28;20478;-64
2022/05/08 06:30:46;;;;;;;20.45;6.10;;;;;;;9.36;70.71;102787.69;5023673;28;20044;-65
2022/05/08 06:33:11;;;;;;;19.83;6.15;;;;;;;9.45;71.12;102785.50;5027696;28;20044;-70
2022/05/08 06:35:39;;;;;;;21.05;6.22;;;;;;;9.53;70.82;102793.78;5027378;28;20044;-65
2022/05/08 06:38:05;;;;;;;19.70;5.78;;;;;;;9.52;70.33;102781.75;5025669;28;20033;-65
2022/05/08 06:40:30;;;;;;;18.60;5.60;;;;;;;9.53;71.59;102786.00;5027430;28;20079;-66
2022/05/08 06:42:55;;;;;;;19.10;6.00;;;;;;;9.63;69.35;102782.97;5027374;28;20443;-64
2022/05/08 06:45:24;;;;;;;18.88;5.43;;;;;;;9.61;69.24;102792.56;5015681;28;20049;-65
2022/05/08 06:47:50;;;;;;;18.33;5.95;;;;;;;9.74;70.49;102791.09;5013523;28;20036;-65
2022/05/08 06:50:19;;;;;;;18.23;5.30;;;;;;;9.75;69.21;102791.03;5027264;28;20041;-65
2022/05/08 06:52:45;;;;;;;18.95;5.72;;;;;;;9.70;68.81;102786.97;5027180;28;20040;-66
2022/05/08 06:55:10;;;;;;;18.02;5.53;;;;;;;9.74;69.39;102796.28;5027174;28;20029;-65
2022/05/08 06:57:35;;;;;;;21.33;6.07;;;;;;;9.69;70.00;102793.03;5027218;28;20104;-65
2022/05/08 07:02:45;;;;;;;17.80;5.68;;;;;;;9.85;69.81;102783.66;5013677;28;20049;-64
2022/05/08 07:05:11;;;;;;;17.20;5.50;;;;;;;10.06;70.30;102789.56;5012666;28;20072;-65
2022/05/08 07:07:36;;;;;;;15.50;5.80;;;;;;;10.10;69.18;102779.00;5009140;28;20493;-65
2022/05/08 07:10:03;;;;;;;19.00;5.75;;;;;;;10.14;69.30;102795.22;5005572;28;20032;-66
2022/05/08 07:12:28;;;;;;;17.80;5.07;;;;;;;10.19;69.01;102797.59;5009064;28;20049;-65
2022/05/08 07:14:54;;;;;;;20.80;5.72;;;;;;;10.24;67.56;102785.28;5006609;28;20048;-66
2022/05/08 07:17:21;;;;;;;17.13;5.47;;;;;;;10.27;67.28;102795.53;5005054;28;20309;-65
2022/05/08 07:19:47;;;;;;;16.65;4.97;;;;;;;10.24;67.09;102800.84;5009045;28;20624;-66
2022/05/08 07:22:14;;;;;;;17.15;5.57;;;;;;;10.31;67.28;102799.63;5010880;28;20022;-64
2022/05/08 07:24:40;;;;;;;17.47;4.80;;;;;;;10.33;67.51;102800.41;5008550;28;20029;-66
2022/05/08 07:27:05;;;;;;;16.83;4.88;;;;;;;10.38;66.54;102795.84;5005112;28;20382;-65
2022/05/08 07:29:30;;;;;;;16.08;4.25;;;;;;;10.53;66.55;102795.06;5007766;28;20470;-64
2022/05/08 07:31:57;;;;;;;12.63;3.50;;;;;;;10.59;66.21;102807.72;5009323;28;20033;-64
2022/05/08 07:37:07;;;;;;;16.92;4.50;;;;;;;10.77;65.25;102805.13;5025832;28;20390;-65
2022/05/08 07:39:32;;;;;;;16.08;3.90;;;;;;;10.85;64.58;102810.78;5024622;28;20465;-65
2022/05/08 07:41:58;;;;;;;16.25;4.47;;;;;;;10.89;64.96;102804.50;5018820;28;20125;-65
2022/05/08 07:44:24;;;;;;;12.52;3.55;;;;;;;11.03;64.22;102815.03;5024310;28;20302;-65
2022/05/08 07:46:51;;;;;;;13.38;4.30;;;;;;;11.11;64.19;102809.41;5026753;28;20036;-65
2022/05/08 07:49:16;;;;;;;16.45;4.50;;;;;;;11.14;64.34;102820.50;5026021;28;20032;-66
2022/05/08 07:51:42;;;;;;;18.67;5.05;;;;;;;11.09;64.43;102809.50;5026858;28;20451;-65
2022/05/08 07:54:07;;;;;;;17.02;4.50;;;;;;;11.21;62.97;102820.19;5026189;28;20497;-65
2022/05/08 07:56:34;;;;;;;15.60;4.53;;;;;;;11.24;62.22;102809.59;5026709;28;20067;-65
2022/05/08 07:58:59;;;;;;;14.02;3.88;;;;;;;11.32;62.70;102818.69;5026679;28;20021;-65
2022/05/08 08:01:24;;;;;;;16.15;4.60;;;;;;;11.39;62.02;102806.22;5026241;28;20068;-66
2022/05/08 08:03:49;;;;;;;16.25;4.57;;;;;;;11.39;60.64;102824.41;5025801;28;20032;-65
2022/05/08 08:06:15;;;;;;;14.90;3.95;;;;;;;11.48;61.70;102823.91;5025731;28;20185;-64
2022/05/08 08:08:40;;;;;;;15.00;4.00;;;;;;;11.57;61.30;102822.56;5026239;28;20052;-59
2022/05/08 08:11:06;;;;;;;14.77;4.13;;;;;;;11.47;59.97;102811.84;5025883;28;20039;-66
2022/05/08 08:13:32;;;;;;;15.52;4.20;;;;;;;11.61;59.45;102824.94;5025497;28;20056;-62
2022/05/08 08:15:59;;;;;;;14.32;4.25;;;;;;;11.67;60.10;102829.78;5025838;28;20051;-63
2022/05/08 08:18:25;;;;;;;15.93;4.43;;;;;;;11.76;60.95;102827.63;5039720;28;20113;-63
2022/05/08 08:20:50;;;;;;;12.32;3.85;;;;;;;11.84;60.68;102825.47;5025648;28;20116;-62
2022/05/08 08:23:15;;;;;;;13.93;3.97;;;;;;;11.92;60.34;102828.47;5025149;28;20496;-62
2022/05/08 08:25:42;;;;;;;14.10;3.50;;;;;;;12.04;59.62;102833.00;5025641;28;20030;-63
2022/05/08 08:28:08;;;;;;;16.02;4.07;;;;;;;12.00;59.67;102815.91;5025368;28;20029;-63
2022/05/08 08:30:33;;;;;;;12.50;3.67;;;;;;;12.15;59.72;102825.44;5025771;28;20693;-62
2022/05/08 08:32:59;;;;;;;14.40;3.78;;;;;;;12.12;58.37;102825.63;5041556;28;20482;-62
2022/05/08 08:35:24;;;;;;;14.43;4.35;;;;;;;12.29;59.94;102823.81;5028836;28;20036;-65
2022/05/08 08:37:50;;;;;;;12.90;3.90;;;;;;;12.38;59.43;102821.53;5028105;28;20025;-62
2022/05/08 08:40:15;;;;;;;15.18;3.97;;;;;;;12.52;59.14;102828.56;5028191;28;20132;-64
2022/05/08 08:42:42;;;;;;;13.40;4.05;;;;;;;12.72;59.42;102829.97;5029327;28;20075;-65
2022/05/08 08:48:09;;;;;;;13.73;3.97;;;;;;;12.63;59.14;102831.38;5010236;28;20041;-62
2022/05/08 08:50:35;;;;;;;14.07;3.88;;;;;;;12.90;59.52;102838.47;5009806;28;20030;-62
2022/05/08 08:53:04;;;;;;;12.65;3.70;;;;;;;12.91;57.91;102840.16;5026230;28;20029;-63
2022/05/08 08:55:30;;;;;;;12.23;3.53;;;;;;;12.79;56.68;102825.25;5029091;28;20191;-63
2022/05/08 08:57:55;;;;;;;15.85;4.25;;;;;;;12.98;57.86;102833.66;5029364;28;20026;-62
2022/05/08 09:00:24;;;;;;;15.52;4.30;;;;;;;12.99;57.42;102827.53;5029036;28;20036;-62
2022/05/08 09:02:52;;;;;;;12.45;4.00;;;;;;;13.00;55.96;102834.41;5029216;28;20032;-63
2022/05/08 09:05:17;;;;;;;11.77;3.55;;;;;;;13.15;55.80;102823.06;5028091;28;20021;-65
2022/05/08 09:07:47;;;;;;;12.07;3.63;;;;;;;13.21;54.38;102832.31;5028886;28;20056;-63
2022/05/08 09:10:24;;;;;;;11.13;3.38;;;;;;;13.27;55.18;102827.56;5028675;28;20056;-61
2022/05/08 09:12:52;;;;;;;14.95;3.80;;;;;;;13.29;55.45;102825.69;5043817;28;20050;-62
2022/05/08 09:15:25;;;;;;;13.82;3.97;;;;;;;13.42;55.41;102819.72;5028509;28;20065;-62
2022/05/08 09:17:53;;;;;;;11.68;3.60;;;;;;;13.35;54.02;102819.25;5028933;28;20057;-65
2022/05/08 09:20:26;;;;;;;12.52;3.28;;;;;;;13.35;53.68;102819.25;5026100;28;20654;-62
2022/05/08 09:23:03;;;;;;;12.57;3.30;;;;;;;13.45;54.98;102824.75;5024657;28;20341;-62
2022/05/08 09:25:45;;;;;;;9.48;3.38;;;;;;;13.65;55.13;102816.53;5006179;28;20029;-62
2022/05/08 09:28:14;;;;;;;10.15;3.00;;;;;;;13.75;52.86;102816.78;5008670;28;20635;-62
2022/05/08 09:30:54;;;;;;;11.80;3.40;;;;;;;13.77;54.53;102805.31;5008109;28;20413;-62
2022/05/08 09:33:23;;;;;;;9.98;3.13;;;;;;;13.89;54.34;102808.09;5006914;28;20489;-63
2022/05/08 09:35:48;;;;;;;10.85;3.65;;;;;;;13.91;51.71;102806.22;5008829;28;20524;-61
2022/05/08 09:38:14;;;;;;;11.30;3.80;;;;;;;13.94;51.44;102811.25;5010919;28;20029;-62
2022/05/08 09:40:39;;;;;;;10.25;3.47;;;;;;;14.16;52.78;102801.06;5026956;28;20067;-64
2022/05/08 09:43:05;;;;;;;11.23;3.42;;;;;;;14.39;52.56;102801.31;5028415;28;20053;-65
2022/05/08 09:45:30;;;;;;;10.73;3.10;;;;;;;14.29;49.92;102812.41;5028432;28;20492;-63
2022/05/08 09:47:57;;;;;;;10.95;3.75;;;;;;;14.29;50.69;102801.94;5028531;28;20033;-62
2022/05/08 09:50:22;;;;;;;9.88;3.30;;;;;;;14.35;50.59;102801.53;5024778;28;20037;-63
2022/05/08 09:52:48;;;;;;;14.35;3.95;;;;;;;14.51;50.07;102805.78;5017173;28;20033;-62
2022/05/08 09:55:14;;;;;;;11.05;3.22;;;;;;;14.57;51.08;102806.22;5028112;28;20040;-63
2022/05/08 09:57:40;;;;;;;11.23;3.22;;;;;;;14.69;51.87;102803.72;5027844;28;20033;-61
2022/05/08 10:00:08;;;;;;;11.45;3.67;;;;;;;14.62;49.42;102798.03;5027938;28;20535;-63
2022/05/08 10:02:38;;;;;;;10.95;3.28;;;;;;;14.80;51.06;102804.66;5028020;28;20045;-65
2022/05/08 10:05:04;;;;;;;11.98;3.28;;;;;;;14.78;50.03;102798.69;5027961;28;20461;-62
2022/05/08 10:07:31;;;;;;;10.88;3.42;;;;;;;14.85;48.45;102805.19;5041337;28;20523;-62
2022/05/08 10:15:29;;;;;;;9.45;3.30;;;;;;;15.04;47.49;102798.69;5027515;28;20172;-62
2022/05/08 10:18:24;;;;;;;8.80;2.90;;;;;;;14.95;47.88;102788.88;5028124;28;20112;-62
2022/05/08 10:21:03;;;;;;;12.68;3.42;;;;;;;15.10;48.87;102793.03;5026346;28;20043;-62
2022/05/08 10:23:34;;;;;;;;;;;;;;;15.31;49.24;102796.78;5027815;28;20111;-62
2022/05/08 10:26:33;;;;;;;11.02;3.42;;;;;;;15.22;48.92;102792.19;5027894;28;19909;-62
2022/05/08 10:29:01;;;;;;;11.27;3.10;;;;;;;15.32;48.08;102793.22;5004644;28;20100;-62
2022/05/08 10:31:48;;;;;;;11.13;3.10;;;;;;;15.30;47.91;102784.63;5042533;28;20874;-62
2022/05/08 10:34:15;;;;;;;9.25;3.20;;;;;;;15.18;46.34;102785.50;5027114;28;20322;-62
2022/05/08 10:37:12;;;;;;;10.13;3.53;;;;;;;15.39;47.98;102776.16;5026951;28;20500;-67
2022/05/08 10:39:48;;;;;;;11.23;3.20;;;;;;;15.49;48.06;102772.88;5016600;28;20049;-63
2022/05/08 10:42:33;;;;;;;10.45;2.92;;;;;;;15.73;47.46;102771.16;5024351;28;20060;-62
2022/05/08 10:45:02;;;;;;;9.77;3.00;;;;;;;15.79;46.58;102762.84;5026278;28;20052;-62
2022/05/08 10:47:37;;;;;;;9.63;3.13;;;;;;;15.98;47.56;102785.06;5027131;28;20041;-63
2022/05/08 10:50:13;;;;;;;10.23;3.35;;;;;;;15.91;46.44;102758.50;5026944;28;20037;-62
2022/05/08 10:52:40;;;;;;;8.55;3.08;;;;;;;15.96;45.17;102763.41;5027630;28;20043;-62
2022/05/08 10:55:12;;;;;;;10.40;3.20;;;;;;;16.16;45.66;102762.75;5026322;28;20528;-64
2022/05/08 10:57:39;;;;;;;12.52;3.50;;;;;;;15.95;44.19;102764.34;5027520;28;20030;-62
2022/05/08 11:00:07;;;;;;;11.55;3.38;;;;;;;16.07;47.70;102758.22;5025550;28;20026;-62
2022/05/08 11:02:41;;;;;;;10.68;3.80;;;;;;;16.06;45.37;102767.00;5027339;28;20466;-62
2022/05/08 11:05:08;;;;;;;11.13;2.97;;;;;;;16.09;45.01;102777.25;5026131;28;20237;-64
2022/05/08 11:07:34;;;;;;;12.65;3.20;;;;;;;16.25;46.31;102766.47;5023973;28;20362;-68
2022/05/08 11:09:59;;;;;;;8.90;3.00;;;;;;;16.41;44.68;102765.22;5025934;28;20478;-62
2022/05/08 11:12:25;;;;;;;9.00;2.95;;;;;;;16.38;43.75;102768.03;5026445;28;20153;-62
2022/05/08 11:15:08;;;;;;;13.02;3.58;;;;;;;16.55;46.39;102763.31;5020206;28;20132;-62
2022/05/08 11:17:34;;;;;;;9.20;3.03;;;;;;;16.62;43.54;102754.03;5018747;28;20410;-63
2022/05/08 11:19:59;;;;;;;11.25;3.28;;;;;;;16.19;41.94;102747.66;5018670;28;20040;-62
2022/05/08 11:22:25;;;;;;;10.15;3.20;;;;;;;16.32;43.90;102768.50;5023495;28;20136;-63
2022/05/08 11:24:50;;;;;;;9.95;3.00;;;;;;;16.41;44.79;102767.81;5023746;28;20152;-62
2022/05/08 11:27:15;;;;;;;10.32;3.50;;;;;;;16.40;44.43;102758.31;5026468;28;20560;-62
2022/05/08 11:29:50;;;;;;;9.30;3.13;;;;;;;16.53;44.38;102754.75;5026092;28;20075;-62
2022/05/08 11:38:03;;;;;;;11.68;3.55;;;;;;;16.88;43.52;102755.53;5013740;28;20072;-63
2022/05/08 11:40:30;;;;;;;10.63;2.85;;;;;;;16.64;43.59;102752.97;5025251;28;20049;-62
2022/05/08 11:42:56;;;;;;;9.88;2.95;;;;;;;16.56;44.01;102744.03;5019445;28;20466;-63
2022/05/08 11:45:21;;;;;;;9.55;3.10;;;;;;;16.83;43.09;102747.19;5010805;28;20037;-61
2022/05/08 11:47:50;;;;;;;10.80;3.45;;;;;;;16.91;42.56;102747.41;5014164;28;20458;-63
2022/05/08 11:50:16;;;;;;;10.45;2.97;;;;;;;16.89;41.73;102746.69;5016400;28;20112;-64
2022/05/08 11:52:41;;;;;;;9.52;2.80;;;;;;;17.16;42.96;102742.88;5007307;28;20046;-62